createdAt,value
2023-04-16T00:02:28.634Z,9.20
2023-04-16T00:06:32.004Z,9.20
2023-04-16T00:10:35.444Z,9.20
2023-04-16T00:14:39.766Z,9.10
2023-04-16T00:18:42.864Z,9.10
2023-04-16T00:22:48.335Z,9.10
2023-04-16T00:26:51.084Z,9.10
2023-04-16T00:30:55.576Z,9.10
2023-04-16T00:34:58.498Z,9.10
2023-04-16T00:39:01.336Z,9.10
2023-04-16T00:43:04.269Z,9.10
2023-04-16T00:47:08.987Z,9.10
2023-04-16T00:51:12.446Z,9.10
2023-04-16T00:55:17.601Z,9.10
2023-04-16T00:59:20.872Z,9.10
2023-04-16T01:03:29.973Z,9.10
2023-04-16T01:07:33.093Z,9.10
2023-04-16T01:11:37.106Z,9.20
2023-04-16T01:15:40.172Z,9.10
2023-04-16T01:19:44.728Z,9.10
2023-04-16T01:23:49.109Z,9.20
2023-04-16T01:27:54.792Z,9.20
2023-04-16T01:31:57.572Z,9.20
2023-04-16T01:36:12.697Z,9.20
2023-04-16T01:40:17.105Z,9.10
2023-04-16T01:44:20.152Z,9.20
2023-04-16T01:48:23.072Z,9.10
2023-04-16T01:52:25.837Z,9.10
2023-04-16T01:56:39.550Z,9.10
2023-04-16T02:00:42.572Z,9.00
2023-04-16T02:04:46.762Z,9.00
2023-04-16T02:08:49.633Z,9.00
2023-04-16T02:12:53.813Z,9.00
2023-04-16T02:16:57.841Z,9.00
2023-04-16T02:21:14.465Z,9.10
2023-04-16T02:25:19.937Z,9.00
2023-04-16T02:29:25.347Z,9.00
2023-04-16T02:33:35.852Z,9.10
2023-04-16T02:37:40.725Z,9.10
2023-04-16T02:41:43.514Z,9.10
2023-04-16T02:45:47.645Z,9.00
2023-04-16T02:49:50.503Z,9.00
2023-04-16T02:53:53.698Z,9.00
2023-04-16T02:57:57.514Z,9.00
2023-04-16T03:02:02.738Z,9.00
2023-04-16T03:06:06.184Z,9.00
2023-04-16T03:10:12.096Z,9.00
2023-04-16T03:14:15.810Z,9.00
2023-04-16T03:18:21.722Z,9.00
2023-04-16T03:22:26.314Z,9.00
2023-04-16T03:26:30.308Z,9.10
2023-04-16T03:30:34.058Z,9.10
2023-04-16T03:34:40.381Z,9.10
2023-04-16T03:38:44.511Z,9.10
2023-04-16T03:42:48.122Z,9.00
2023-04-16T03:46:51.235Z,9.00
2023-04-16T03:50:56.348Z,9.10
2023-04-16T03:55:00.594Z,9.00
2023-04-16T03:59:07.306Z,9.10
2023-04-16T04:03:13.309Z,9.10
2023-04-16T04:07:19.176Z,9.10
2023-04-16T04:11:22.229Z,9.10
2023-04-16T04:15:25.795Z,9.00
2023-04-16T04:19:30.296Z,9.00
2023-04-16T04:23:35.493Z,9.00
2023-04-16T04:27:38.352Z,9.00
2023-04-16T04:31:41.515Z,9.00
2023-04-16T04:35:44.242Z,9.00
2023-04-16T04:39:48.482Z,9.00
2023-04-16T04:43:51.913Z,9.00
2023-04-16T04:47:55.023Z,9.00
2023-04-16T04:51:58.044Z,9.00
2023-04-16T04:56:12.193Z,8.90
2023-04-16T05:00:16.486Z,8.90
2023-04-16T05:04:26.251Z,8.90
2023-04-16T05:08:28.986Z,8.90
2023-04-16T05:12:33.062Z,8.90
2023-04-16T05:16:38.318Z,8.90
2023-04-16T05:20:41.121Z,8.90
2023-04-16T05:24:44.031Z,8.90
2023-04-16T05:28:48.216Z,8.90
2023-04-16T05:32:51.625Z,8.90
2023-04-16T05:36:54.352Z,8.90
2023-04-16T05:40:57.181Z,8.90
2023-04-16T05:45:03.007Z,8.90
2023-04-16T05:49:05.740Z,8.90
2023-04-16T05:53:09.566Z,8.90
2023-04-16T05:57:12.312Z,8.80
2023-04-16T06:01:16.386Z,8.80
2023-04-16T06:05:19.291Z,8.80
2023-04-16T06:09:22.066Z,8.70
2023-04-16T06:13:24.939Z,8.70
2023-04-16T06:17:29.133Z,8.70
2023-04-16T06:21:32.139Z,8.70
2023-04-16T06:25:35.078Z,8.70
2023-04-16T06:29:41.697Z,8.70
2023-04-16T06:33:46.099Z,8.60
2023-04-16T06:37:48.924Z,8.60
2023-04-16T06:41:52.207Z,8.60
2023-04-16T06:45:55.351Z,8.60
2023-04-16T06:49:59.497Z,8.60
2023-04-16T06:54:02.426Z,8.70
2023-04-16T06:58:05.172Z,8.70
2023-04-16T07:02:09.674Z,8.70
2023-04-16T07:06:13.807Z,8.70
2023-04-16T07:10:16.684Z,8.70
2023-04-16T07:14:19.491Z,8.70
2023-04-16T07:18:22.382Z,8.70
2023-04-16T07:22:26.485Z,8.70
2023-04-16T07:26:29.222Z,8.70
2023-04-16T07:30:34.228Z,8.70
2023-04-16T07:34:37.031Z,8.70
2023-04-16T07:38:41.133Z,8.80
2023-04-16T07:42:44.493Z,8.80
2023-04-16T07:46:47.801Z,8.80
2023-04-16T07:50:51.037Z,8.80
2023-04-16T07:54:55.163Z,8.80
2023-04-16T07:59:02.906Z,8.80
2023-04-16T08:03:11.214Z,8.90
2023-04-16T08:07:14.152Z,9.00
2023-04-16T08:11:18.424Z,9.20
2023-04-16T08:15:21.405Z,9.30
2023-04-16T08:19:24.171Z,9.40
2023-04-16T08:23:27.095Z,9.40
2023-04-16T08:27:31.209Z,9.40
2023-04-16T08:31:34.508Z,9.50
2023-04-16T08:35:37.324Z,9.60
2023-04-16T08:39:40.170Z,9.60
2023-04-16T08:43:46.309Z,9.60
2023-04-16T08:47:51.038Z,9.50
2023-04-16T08:51:56.765Z,9.60
2023-04-16T08:56:04.590Z,9.70
2023-04-16T09:00:10.621Z,9.80
2023-04-16T09:04:14.924Z,9.90
2023-04-16T09:08:20.177Z,9.90
2023-04-16T09:12:24.818Z,10.00
2023-04-16T09:16:34.458Z,10.10
2023-04-16T09:20:37.333Z,10.30
2023-04-16T09:24:40.086Z,10.40
2023-04-16T09:28:44.591Z,10.50
2023-04-16T09:32:49.290Z,10.60
2023-04-16T09:36:52.142Z,10.70
2023-04-16T09:41:07.198Z,10.70
2023-04-16T09:45:10.663Z,10.70
2023-04-16T09:49:17.576Z,10.80
2023-04-16T09:53:25.600Z,11.10
2023-04-16T09:57:28.406Z,11.20
2023-04-16T10:01:32.956Z,11.20
2023-04-16T10:05:37.324Z,11.00
2023-04-16T10:09:41.476Z,11.00
2023-04-16T10:13:45.240Z,10.90
2023-04-16T10:17:48.652Z,10.90
2023-04-16T10:21:53.276Z,11.00
2023-04-16T10:25:57.609Z,11.00
2023-04-16T10:30:01.551Z,11.00
2023-04-16T10:34:04.849Z,11.00
2023-04-16T10:42:34.924Z,11.00
2023-04-16T10:46:47.286Z,11.00
2023-04-16T10:51:08.566Z,11.00
2023-04-16T11:00:06.161Z,10.90
2023-04-16T11:05:08.354Z,11.10
2023-04-16T11:10:08.996Z,11.20
2023-04-16T11:14:44.005Z,11.20
2023-04-16T11:19:07.480Z,11.20
2023-04-16T11:23:27.240Z,11.40
2023-04-16T11:27:41.247Z,11.40
2023-04-16T11:32:10.664Z,11.40
2023-04-16T11:36:22.902Z,11.30
2023-04-16T11:40:45.801Z,11.40
2023-04-16T11:45:02.975Z,11.50
2023-04-16T11:49:21.348Z,11.40
2023-04-16T11:53:38.038Z,11.30
2023-04-16T11:57:41.148Z,11.20
2023-04-16T12:01:47.056Z,11.10
2023-04-16T12:05:51.264Z,11.20
2023-04-16T12:10:06.997Z,11.30
2023-04-16T12:14:11.427Z,11.30
2023-04-16T12:18:16.336Z,11.20
2023-04-16T12:22:29.121Z,11.20
2023-04-16T12:26:38.754Z,11.30
2023-04-16T12:30:51.764Z,11.20
2023-04-16T12:34:54.623Z,11.20
2023-04-16T12:38:59.590Z,11.30
2023-04-16T12:43:02.820Z,11.40
2023-04-16T12:47:07.171Z,11.40
2023-04-16T12:51:10.316Z,11.30
2023-04-16T12:55:14.959Z,11.30
2023-04-16T12:59:18.283Z,11.10
2023-04-16T13:03:22.192Z,11.20
2023-04-16T13:07:26.687Z,11.20
2023-04-16T13:11:32.834Z,11.30
2023-04-16T13:15:35.987Z,11.20
2023-04-16T13:19:39.107Z,11.10
2023-04-16T13:23:42.344Z,11.10
2023-04-16T13:27:48.181Z,11.10
2023-04-16T13:31:52.341Z,11.10
2023-04-16T13:35:55.419Z,11.20
2023-04-16T13:39:58.186Z,11.10
2023-04-16T13:44:02.807Z,11.10
2023-04-16T13:48:06.383Z,11.00
2023-04-16T13:52:09.301Z,11.00
2023-04-16T13:56:12.045Z,11.00
2023-04-16T14:00:18.170Z,11.10
2023-04-16T14:04:22.381Z,11.10
2023-04-16T14:08:28.530Z,11.10
2023-04-16T14:12:33.252Z,11.10
2023-04-16T14:16:38.684Z,11.20
2023-04-16T14:20:42.170Z,11.20
2023-04-16T14:24:45.447Z,11.20
2023-04-16T14:28:49.495Z,11.20
2023-04-16T14:32:56.760Z,11.20
2023-04-16T14:37:00.087Z,11.10
2023-04-16T14:41:02.871Z,11.10
2023-04-16T14:45:06.741Z,11.10
2023-04-16T14:49:12.247Z,11.10
2023-04-16T14:53:15.393Z,11.10
2023-04-16T14:57:19.106Z,11.10
2023-04-16T15:01:21.964Z,11.10
2023-04-16T15:05:27.312Z,11.00
2023-04-16T15:09:30.074Z,11.00
2023-04-16T15:13:34.537Z,11.10
2023-04-16T15:17:38.111Z,11.10
2023-04-16T15:21:43.059Z,11.00
2023-04-16T15:25:47.031Z,11.00
2023-04-16T15:29:49.753Z,11.00
2023-04-16T15:33:53.749Z,11.00
2023-04-16T15:38:01.119Z,11.00
2023-04-16T15:42:07.440Z,11.00
2023-04-16T15:46:10.519Z,11.00
2023-04-16T15:50:13.315Z,11.00
2023-04-16T15:54:18.159Z,11.10
2023-04-16T15:58:22.253Z,11.10
2023-04-16T16:02:25.224Z,11.20
2023-04-16T16:06:28.810Z,11.20
2023-04-16T16:10:32.980Z,11.20
2023-04-16T16:14:36.671Z,11.30
2023-04-16T16:18:39.527Z,11.30
2023-04-16T16:22:45.156Z,11.30
2023-04-16T16:26:49.262Z,11.30
2023-04-16T16:30:54.607Z,11.30
2023-04-16T16:34:57.480Z,11.30
2023-04-16T16:39:00.196Z,11.30
2023-04-16T16:43:04.574Z,11.30
2023-04-16T16:47:07.725Z,11.30
2023-04-16T16:51:11.981Z,11.30
2023-04-16T16:59:20.486Z,11.20
2023-04-16T17:03:23.462Z,11.20
2023-04-16T17:07:27.676Z,11.20
2023-04-16T17:11:30.624Z,11.20
2023-04-16T17:15:34.839Z,11.20
2023-04-16T17:19:38.768Z,11.10
2023-04-16T17:23:41.820Z,11.10
2023-04-16T17:27:45.736Z,11.10
2023-04-16T17:31:49.969Z,11.10
2023-04-16T17:35:52.945Z,11.00
2023-04-16T17:39:56.017Z,11.00
2023-04-16T17:44:00.161Z,10.90
2023-04-16T17:48:07.828Z,10.90
2023-04-16T17:52:10.815Z,10.90
2023-04-16T17:56:15.927Z,10.80
2023-04-16T18:00:20.638Z,10.80
2023-04-16T18:04:29.021Z,10.80
2023-04-16T18:08:33.690Z,10.70
2023-04-16T18:12:36.521Z,10.60
2023-04-16T18:16:39.315Z,10.60
2023-04-16T18:20:46.873Z,10.60
2023-04-16T18:24:56.862Z,10.50
2023-04-16T18:29:00.315Z,10.40
2023-04-16T18:37:10.861Z,10.30
2023-04-16T18:41:18.842Z,10.30
2023-04-16T18:45:22.244Z,10.20
2023-04-16T18:49:25.659Z,10.20
2023-04-16T18:53:30.475Z,10.20
2023-04-16T18:57:34.730Z,10.20
2023-04-16T19:01:37.528Z,10.20
2023-04-16T19:05:40.581Z,10.20
2023-04-16T19:09:44.930Z,10.10
2023-04-16T19:13:48.825Z,10.10
2023-04-16T19:17:51.606Z,10.10
2023-04-16T19:21:54.498Z,10.10
2023-04-16T19:25:58.611Z,10.10
2023-04-16T19:30:01.408Z,10.10
2023-04-16T19:34:04.337Z,10.00
2023-04-16T19:38:09.558Z,10.10
2023-04-16T19:42:14.764Z,10.00
2023-04-16T19:46:17.826Z,10.00
2023-04-16T19:50:21.382Z,9.90
2023-04-16T19:54:24.431Z,9.90
2023-04-16T19:58:28.755Z,9.90
2023-04-16T20:02:31.549Z,9.90
2023-04-16T20:06:34.433Z,9.90
2023-04-16T20:10:37.289Z,9.90
2023-04-16T20:14:41.750Z,9.80
2023-04-16T20:18:46.021Z,9.80
2023-04-16T20:22:48.844Z,9.70
2023-04-16T20:26:51.567Z,9.70
2023-04-16T20:30:55.752Z,9.70
2023-04-16T20:34:58.597Z,9.70
2023-04-16T20:39:02.133Z,9.60
2023-04-16T20:43:10.152Z,9.60
2023-04-16T20:47:15.274Z,9.60
2023-04-16T20:51:18.308Z,9.60
2023-04-16T20:55:21.283Z,9.60
2023-04-16T20:59:24.228Z,9.60
2023-04-16T21:03:28.570Z,9.60
2023-04-16T21:07:31.678Z,9.60
2023-04-16T21:11:35.423Z,9.50
2023-04-16T21:15:38.520Z,9.40
2023-04-16T21:19:42.773Z,9.50
2023-04-16T21:23:45.704Z,9.50
2023-04-16T21:27:49.497Z,9.50
2023-04-16T21:31:52.430Z,9.50
2023-04-16T21:35:57.408Z,9.50
2023-04-16T21:40:00.482Z,9.50
2023-04-16T21:44:03.561Z,9.40
2023-04-16T21:48:08.565Z,9.40
2023-04-16T21:52:30.455Z,9.40
2023-04-16T21:56:36.171Z,9.30
2023-04-16T22:00:38.966Z,9.30
2023-04-16T22:04:43.830Z,9.30
2023-04-16T22:08:51.024Z,9.40
2023-04-16T22:12:54.866Z,9.30
2023-04-16T22:16:58.606Z,9.30
2023-04-16T22:21:02.108Z,9.40
2023-04-16T22:25:07.428Z,9.40
2023-04-16T22:29:10.632Z,9.40
2023-04-16T22:33:13.848Z,9.40
2023-04-16T22:37:16.686Z,9.40
2023-04-16T22:41:21.167Z,9.50
2023-04-16T22:45:23.892Z,9.50
2023-04-16T22:49:28.101Z,9.50
2023-04-16T22:53:31.009Z,9.50
2023-04-16T22:57:35.094Z,9.50
2023-04-16T23:01:38.692Z,9.50
2023-04-16T23:05:41.586Z,9.50
2023-04-16T23:09:44.286Z,9.50
2023-04-16T23:13:48.429Z,9.50
2023-04-16T23:17:51.488Z,9.40
2023-04-16T23:21:54.285Z,9.50
2023-04-16T23:25:56.993Z,9.50
2023-04-16T23:30:01.116Z,9.40
2023-04-16T23:34:03.847Z,9.40
2023-04-16T23:38:06.880Z,9.40
2023-04-16T23:42:09.814Z,9.50
2023-04-16T23:46:13.970Z,9.40
2023-04-16T23:50:16.772Z,9.40
2023-04-16T23:54:19.635Z,9.40
2023-04-16T23:58:22.346Z,9.40
